sensor_id;sensor_type;location;lat;lon;timestamp;P1;durP1;ratioP1;P2;durP2;ratioP2
12826;SDS011;66927;48.812;9.118;2023-04-06T00:01:45;6.90;;;4.60;;
12826;SDS011;66927;48.812;9.118;2023-04-06T00:04:11;6.50;;;4.37;;
12826;SDS011;66927;48.812;9.118;2023-04-06T00:06:37;4.60;;;4.00;;
12826;SDS011;66927;48.812;9.118;2023-04-06T00:09:03;6.90;;;4.97;;
12826;SDS011;66927;48.812;9.118;2023-04-06T00:11:29;6.70;;;4.97;;
12826;SDS011;66927;48.812;9.118;2023-04-06T00:13:55;6.50;;;5.70;;
12826;SDS011;66927;48.812;9.118;2023-04-06T00:16:20;6.67;;;5.27;;
12826;SDS011;66927;48.812;9.118;2023-04-06T00:18:46;7.00;;;5.70;;
12826;SDS011;66927;48.812;9.118;2023-04-06T00:21:12;7.73;;;5.83;;
12826;SDS011;66927;48.812;9.118;2023-04-06T00:23:39;6.20;;;5.60;;
12826;SDS011;66927;48.812;9.118;2023-04-06T00:26:05;7.93;;;6.07;;
12826;SDS011;66927;48.812;9.118;2023-04-06T00:28:31;5.40;;;4.90;;
12826;SDS011;66927;48.812;9.118;2023-04-06T00:30:57;5.97;;;5.37;;
12826;SDS011;66927;48.812;9.118;2023-04-06T00:33:23;8.93;;;5.27;;
12826;SDS011;66927;48.812;9.118;2023-04-06T00:35:49;5.27;;;4.77;;
12826;SDS011;66927;48.812;9.118;2023-04-06T00:38:15;5.63;;;4.47;;
12826;SDS011;66927;48.812;9.118;2023-04-06T00:40:41;5.67;;;4.63;;
12826;SDS011;66927;48.812;9.118;2023-04-06T00:43:09;4.87;;;4.37;;
12826;SDS011;66927;48.812;9.118;2023-04-06T00:45:37;7.00;;;4.40;;
12826;SDS011;66927;48.812;9.118;2023-04-06T00:48:07;5.20;;;4.20;;
12826;SDS011;66927;48.812;9.118;2023-04-06T00:50:33;5.50;;;4.37;;
12826;SDS011;66927;48.812;9.118;2023-04-06T00:52:59;7.47;;;4.40;;
12826;SDS011;66927;48.812;9.118;2023-04-06T00:55:28;5.93;;;4.93;;
12826;SDS011;66927;48.812;9.118;2023-04-06T00:57:54;5.70;;;5.00;;
12826;SDS011;66927;48.812;9.118;2023-04-06T01:00:23;6.03;;;4.60;;
12826;SDS011;66927;48.812;9.118;2023-04-06T01:02:49;5.03;;;4.30;;
12826;SDS011;66927;48.812;9.118;2023-04-06T01:05:15;6.43;;;4.90;;
12826;SDS011;66927;48.812;9.118;2023-04-06T01:07:41;5.90;;;4.93;;
12826;SDS011;66927;48.812;9.118;2023-04-06T01:10:06;5.10;;;4.40;;
12826;SDS011;66927;48.812;9.118;2023-04-06T01:12:32;8.83;;;4.73;;
12826;SDS011;66927;48.812;9.118;2023-04-06T01:14:59;7.70;;;4.30;;
12826;SDS011;66927;48.812;9.118;2023-04-06T01:17:25;6.03;;;4.67;;
12826;SDS011;66927;48.812;9.118;2023-04-06T01:19:51;5.57;;;4.37;;
12826;SDS011;66927;48.812;9.118;2023-04-06T01:22:18;5.07;;;4.33;;
12826;SDS011;66927;48.812;9.118;2023-04-06T01:24:45;5.07;;;4.23;;
12826;SDS011;66927;48.812;9.118;2023-04-06T01:27:11;5.87;;;5.17;;
12826;SDS011;66927;48.812;9.118;2023-04-06T01:29:37;6.67;;;5.23;;
12826;SDS011;66927;48.812;9.118;2023-04-06T01:32:07;7.57;;;5.03;;
12826;SDS011;66927;48.812;9.118;2023-04-06T01:34:33;5.83;;;5.10;;
12826;SDS011;66927;48.812;9.118;2023-04-06T01:36:58;6.30;;;5.30;;
12826;SDS011;66927;48.812;9.118;2023-04-06T01:39:25;8.10;;;4.97;;
12826;SDS011;66927;48.812;9.118;2023-04-06T01:41:51;6.23;;;5.10;;
12826;SDS011;66927;48.812;9.118;2023-04-06T01:44:17;5.93;;;5.10;;
12826;SDS011;66927;48.812;9.118;2023-04-06T01:46:44;6.77;;;5.27;;
12826;SDS011;66927;48.812;9.118;2023-04-06T01:49:13;8.50;;;4.70;;
12826;SDS011;66927;48.812;9.118;2023-04-06T01:51:39;6.83;;;4.67;;
12826;SDS011;66927;48.812;9.118;2023-04-06T01:54:05;5.70;;;4.93;;
12826;SDS011;66927;48.812;9.118;2023-04-06T01:56:31;5.67;;;4.60;;
12826;SDS011;66927;48.812;9.118;2023-04-06T01:58:56;5.53;;;4.47;;
12826;SDS011;66927;48.812;9.118;2023-04-06T02:01:22;5.13;;;4.47;;
12826;SDS011;66927;48.812;9.118;2023-04-06T02:03:48;5.60;;;4.60;;
12826;SDS011;66927;48.812;9.118;2023-04-06T02:06:13;4.70;;;4.13;;
12826;SDS011;66927;48.812;9.118;2023-04-06T02:08:39;5.87;;;4.67;;
12826;SDS011;66927;48.812;9.118;2023-04-06T02:11:05;5.93;;;4.70;;
12826;SDS011;66927;48.812;9.118;2023-04-06T02:13:31;8.00;;;4.67;;
12826;SDS011;66927;48.812;9.118;2023-04-06T02:15:56;7.17;;;4.60;;
12826;SDS011;66927;48.812;9.118;2023-04-06T02:18:22;5.03;;;4.53;;
12826;SDS011;66927;48.812;9.118;2023-04-06T02:20:48;6.07;;;4.90;;
12826;SDS011;66927;48.812;9.118;2023-04-06T02:23:13;5.60;;;4.73;;
12826;SDS011;66927;48.812;9.118;2023-04-06T02:25:42;5.17;;;4.33;;
12826;SDS011;66927;48.812;9.118;2023-04-06T02:28:08;7.00;;;5.43;;
12826;SDS011;66927;48.812;9.118;2023-04-06T02:30:34;6.17;;;5.03;;
12826;SDS011;66927;48.812;9.118;2023-04-06T02:33:00;6.20;;;4.33;;
12826;SDS011;66927;48.812;9.118;2023-04-06T02:35:27;5.27;;;4.77;;
12826;SDS011;66927;48.812;9.118;2023-04-06T02:37:54;7.60;;;5.03;;
12826;SDS011;66927;48.812;9.118;2023-04-06T02:40:19;6.20;;;4.60;;
12826;SDS011;66927;48.812;9.118;2023-04-06T02:42:46;7.00;;;4.73;;
12826;SDS011;66927;48.812;9.118;2023-04-06T02:45:13;5.57;;;4.23;;
12826;SDS011;66927;48.812;9.118;2023-04-06T02:47:38;6.07;;;4.60;;
12826;SDS011;66927;48.812;9.118;2023-04-06T02:50:04;8.43;;;5.07;;
12826;SDS011;66927;48.812;9.118;2023-04-06T02:52:30;6.87;;;5.20;;
12826;SDS011;66927;48.812;9.118;2023-04-06T02:54:56;5.17;;;4.67;;
12826;SDS011;66927;48.812;9.118;2023-04-06T02:57:22;9.90;;;5.33;;
12826;SDS011;66927;48.812;9.118;2023-04-06T02:59:48;6.97;;;5.20;;
12826;SDS011;66927;48.812;9.118;2023-04-06T03:02:13;6.43;;;4.90;;
12826;SDS011;66927;48.812;9.118;2023-04-06T03:04:40;7.60;;;4.67;;
12826;SDS011;66927;48.812;9.118;2023-04-06T03:07:06;6.40;;;4.83;;
12826;SDS011;66927;48.812;9.118;2023-04-06T03:09:32;8.03;;;5.27;;
12826;SDS011;66927;48.812;9.118;2023-04-06T03:11:58;7.43;;;6.00;;
12826;SDS011;66927;48.812;9.118;2023-04-06T03:14:24;7.77;;;5.87;;
12826;SDS011;66927;48.812;9.118;2023-04-06T03:16:50;7.00;;;5.40;;
12826;SDS011;66927;48.812;9.118;2023-04-06T03:19:16;6.13;;;5.10;;
12826;SDS011;66927;48.812;9.118;2023-04-06T03:21:42;9.37;;;5.30;;
12826;SDS011;66927;48.812;9.118;2023-04-06T03:24:08;5.40;;;4.90;;
12826;SDS011;66927;48.812;9.118;2023-04-06T03:26:33;12.20;;;5.60;;
12826;SDS011;66927;48.812;9.118;2023-04-06T03:28:59;7.73;;;5.33;;
12826;SDS011;66927;48.812;9.118;2023-04-06T03:31:25;6.00;;;5.30;;
12826;SDS011;66927;48.812;9.118;2023-04-06T03:33:51;5.37;;;4.83;;
12826;SDS011;66927;48.812;9.118;2023-04-06T03:36:17;5.73;;;5.00;;
12826;SDS011;66927;48.812;9.118;2023-04-06T03:38:43;6.13;;;5.53;;
12826;SDS011;66927;48.812;9.118;2023-04-06T03:41:08;6.37;;;4.83;;
12826;SDS011;66927;48.812;9.118;2023-04-06T03:43:36;6.67;;;5.23;;
12826;SDS011;66927;48.812;9.118;2023-04-06T03:46:02;8.30;;;5.80;;
12826;SDS011;66927;48.812;9.118;2023-04-06T03:48:27;8.40;;;5.70;;
12826;SDS011;66927;48.812;9.118;2023-04-06T03:50:53;7.57;;;5.47;;
12826;SDS011;66927;48.812;9.118;2023-04-06T03:53:19;8.13;;;5.63;;
12826;SDS011;66927;48.812;9.118;2023-04-06T03:55:45;8.27;;;5.63;;
12826;SDS011;66927;48.812;9.118;2023-04-06T03:58:11;6.30;;;5.70;;
12826;SDS011;66927;48.812;9.118;2023-04-06T04:00:37;8.10;;;5.67;;
12826;SDS011;66927;48.812;9.118;2023-04-06T04:03:03;6.23;;;5.57;;
12826;SDS011;66927;48.812;9.118;2023-04-06T04:05:28;7.57;;;5.80;;
12826;SDS011;66927;48.812;9.118;2023-04-06T04:07:54;6.53;;;5.93;;
12826;SDS011;66927;48.812;9.118;2023-04-06T04:10:20;8.67;;;5.60;;
12826;SDS011;66927;48.812;9.118;2023-04-06T04:12:46;11.60;;;6.17;;
12826;SDS011;66927;48.812;9.118;2023-04-06T04:15:11;8.20;;;5.90;;
12826;SDS011;66927;48.812;9.118;2023-04-06T04:17:37;11.77;;;6.33;;
12826;SDS011;66927;48.812;9.118;2023-04-06T04:20:03;7.20;;;5.77;;
12826;SDS011;66927;48.812;9.118;2023-04-06T04:22:29;7.13;;;5.67;;
12826;SDS011;66927;48.812;9.118;2023-04-06T04:24:55;9.07;;;6.33;;
12826;SDS011;66927;48.812;9.118;2023-04-06T04:27:20;7.13;;;6.10;;
12826;SDS011;66927;48.812;9.118;2023-04-06T04:29:46;7.77;;;5.90;;
12826;SDS011;66927;48.812;9.118;2023-04-06T04:32:12;7.63;;;6.00;;
12826;SDS011;66927;48.812;9.118;2023-04-06T04:34:38;9.47;;;6.63;;
12826;SDS011;66927;48.812;9.118;2023-04-06T04:37:05;7.10;;;5.73;;
12826;SDS011;66927;48.812;9.118;2023-04-06T04:39:31;7.70;;;5.93;;
12826;SDS011;66927;48.812;9.118;2023-04-06T04:41:57;8.77;;;6.63;;
12826;SDS011;66927;48.812;9.118;2023-04-06T04:44:23;6.67;;;6.00;;
12826;SDS011;66927;48.812;9.118;2023-04-06T04:46:48;6.77;;;5.90;;
12826;SDS011;66927;48.812;9.118;2023-04-06T04:49:15;7.33;;;6.17;;
12826;SDS011;66927;48.812;9.118;2023-04-06T04:51:41;8.40;;;6.93;;
12826;SDS011;66927;48.812;9.118;2023-04-06T04:54:07;8.90;;;7.30;;
12826;SDS011;66927;48.812;9.118;2023-04-06T04:56:32;8.90;;;7.30;;
12826;SDS011;66927;48.812;9.118;2023-04-06T04:58:58;8.93;;;6.80;;
12826;SDS011;66927;48.812;9.118;2023-04-06T05:01:24;9.10;;;7.53;;
12826;SDS011;66927;48.812;9.118;2023-04-06T05:03:50;12.67;;;8.20;;
12826;SDS011;66927;48.812;9.118;2023-04-06T05:06:15;15.37;;;8.43;;
12826;SDS011;66927;48.812;9.118;2023-04-06T05:08:41;11.00;;;7.20;;
12826;SDS011;66927;48.812;9.118;2023-04-06T05:11:08;8.50;;;7.70;;
12826;SDS011;66927;48.812;9.118;2023-04-06T05:13:34;11.27;;;8.40;;
12826;SDS011;66927;48.812;9.118;2023-04-06T05:16:00;11.67;;;7.73;;
12826;SDS011;66927;48.812;9.118;2023-04-06T05:18:26;10.00;;;7.80;;
12826;SDS011;66927;48.812;9.118;2023-04-06T05:20:51;9.53;;;7.33;;
12826;SDS011;66927;48.812;9.118;2023-04-06T05:23:17;10.23;;;7.43;;
12826;SDS011;66927;48.812;9.118;2023-04-06T05:25:43;8.60;;;7.57;;
12826;SDS011;66927;48.812;9.118;2023-04-06T05:28:09;15.43;;;7.90;;
12826;SDS011;66927;48.812;9.118;2023-04-06T05:30:35;10.70;;;8.23;;
12826;SDS011;66927;48.812;9.118;2023-04-06T05:33:01;11.40;;;8.43;;
12826;SDS011;66927;48.812;9.118;2023-04-06T05:35:27;11.20;;;8.10;;
12826;SDS011;66927;48.812;9.118;2023-04-06T05:37:53;9.80;;;7.90;;
12826;SDS011;66927;48.812;9.118;2023-04-06T05:40:18;10.03;;;7.43;;
12826;SDS011;66927;48.812;9.118;2023-04-06T05:42:44;12.50;;;7.40;;
12826;SDS011;66927;48.812;9.118;2023-04-06T05:45:10;11.53;;;7.10;;
12826;SDS011;66927;48.812;9.118;2023-04-06T05:47:41;9.77;;;7.20;;
12826;SDS011;66927;48.812;9.118;2023-04-06T05:50:10;10.10;;;7.47;;
12826;SDS011;66927;48.812;9.118;2023-04-06T05:52:36;12.27;;;8.17;;
12826;SDS011;66927;48.812;9.118;2023-04-06T05:55:02;9.67;;;7.80;;
12826;SDS011;66927;48.812;9.118;2023-04-06T05:57:29;9.53;;;7.50;;
12826;SDS011;66927;48.812;9.118;2023-04-06T05:59:54;11.83;;;8.03;;
12826;SDS011;66927;48.812;9.118;2023-04-06T06:02:20;10.77;;;8.30;;
12826;SDS011;66927;48.812;9.118;2023-04-06T06:04:46;10.93;;;7.87;;
12826;SDS011;66927;48.812;9.118;2023-04-06T06:07:14;9.67;;;7.97;;
12826;SDS011;66927;48.812;9.118;2023-04-06T06:09:40;11.30;;;9.13;;
12826;SDS011;66927;48.812;9.118;2023-04-06T06:12:05;10.20;;;8.37;;
12826;SDS011;66927;48.812;9.118;2023-04-06T06:14:31;11.13;;;9.23;;
12826;SDS011;66927;48.812;9.118;2023-04-06T06:16:57;13.03;;;8.23;;
12826;SDS011;66927;48.812;9.118;2023-04-06T06:19:22;10.17;;;8.33;;
12826;SDS011;66927;48.812;9.118;2023-04-06T06:21:48;10.03;;;8.53;;
12826;SDS011;66927;48.812;9.118;2023-04-06T06:24:14;14.73;;;8.93;;
12826;SDS011;66927;48.812;9.118;2023-04-06T06:26:40;12.73;;;8.83;;
12826;SDS011;66927;48.812;9.118;2023-04-06T06:29:06;14.27;;;9.57;;
12826;SDS011;66927;48.812;9.118;2023-04-06T06:31:32;13.97;;;9.57;;
12826;SDS011;66927;48.812;9.118;2023-04-06T06:33:57;13.23;;;8.90;;
12826;SDS011;66927;48.812;9.118;2023-04-06T06:36:23;14.27;;;9.67;;
12826;SDS011;66927;48.812;9.118;2023-04-06T06:38:50;10.60;;;8.60;;
12826;SDS011;66927;48.812;9.118;2023-04-06T06:41:17;11.80;;;8.87;;
12826;SDS011;66927;48.812;9.118;2023-04-06T06:43:43;9.93;;;8.87;;
12826;SDS011;66927;48.812;9.118;2023-04-06T06:46:08;11.57;;;9.10;;
12826;SDS011;66927;48.812;9.118;2023-04-06T06:48:34;14.60;;;9.50;;
12826;SDS011;66927;48.812;9.118;2023-04-06T06:51:00;11.57;;;9.63;;
12826;SDS011;66927;48.812;9.118;2023-04-06T06:53:26;12.43;;;8.67;;
12826;SDS011;66927;48.812;9.118;2023-04-06T06:55:52;9.60;;;8.60;;
12826;SDS011;66927;48.812;9.118;2023-04-06T06:58:18;11.07;;;9.17;;
12826;SDS011;66927;48.812;9.118;2023-04-06T07:00:45;14.57;;;8.70;;
12826;SDS011;66927;48.812;9.118;2023-04-06T07:03:11;14.50;;;9.47;;
12826;SDS011;66927;48.812;9.118;2023-04-06T07:05:36;13.17;;;9.37;;
12826;SDS011;66927;48.812;9.118;2023-04-06T07:08:02;11.13;;;9.17;;
12826;SDS011;66927;48.812;9.118;2023-04-06T07:10:28;11.30;;;8.87;;
12826;SDS011;66927;48.812;9.118;2023-04-06T07:12:54;10.40;;;9.03;;
12826;SDS011;66927;48.812;9.118;2023-04-06T07:15:21;11.43;;;9.20;;
12826;SDS011;66927;48.812;9.118;2023-04-06T07:17:48;16.43;;;9.53;;
12826;SDS011;66927;48.812;9.118;2023-04-06T07:20:13;11.57;;;9.00;;
12826;SDS011;66927;48.812;9.118;2023-04-06T07:22:40;12.57;;;9.33;;
12826;SDS011;66927;48.812;9.118;2023-04-06T07:25:08;12.97;;;9.33;;
12826;SDS011;66927;48.812;9.118;2023-04-06T07:27:34;11.67;;;8.87;;
12826;SDS011;66927;48.812;9.118;2023-04-06T07:29:59;11.27;;;10.17;;
12826;SDS011;66927;48.812;9.118;2023-04-06T07:32:25;11.87;;;9.60;;
12826;SDS011;66927;48.812;9.118;2023-04-06T07:34:51;12.07;;;9.17;;
12826;SDS011;66927;48.812;9.118;2023-04-06T07:37:16;15.57;;;9.27;;
12826;SDS011;66927;48.812;9.118;2023-04-06T07:39:42;10.67;;;9.57;;
12826;SDS011;66927;48.812;9.118;2023-04-06T07:42:08;10.27;;;9.20;;
12826;SDS011;66927;48.812;9.118;2023-04-06T07:44:34;13.03;;;9.17;;
12826;SDS011;66927;48.812;9.118;2023-04-06T07:46:59;10.17;;;9.13;;
12826;SDS011;66927;48.812;9.118;2023-04-06T07:49:25;10.77;;;8.38;;
12826;SDS011;66927;48.812;9.118;2023-04-06T07:51:51;10.88;;;9.07;;
12826;SDS011;66927;48.812;9.118;2023-04-06T07:54:17;11.15;;;9.07;;
12826;SDS011;66927;48.812;9.118;2023-04-06T07:56:42;14.95;;;9.60;;
12826;SDS011;66927;48.812;9.118;2023-04-06T07:59:08;10.40;;;9.20;;
12826;SDS011;66927;48.812;9.118;2023-04-06T08:01:36;16.80;;;9.23;;
12826;SDS011;66927;48.812;9.118;2023-04-06T08:04:02;9.88;;;8.77;;
12826;SDS011;66927;48.812;9.118;2023-04-06T08:06:27;12.63;;;9.63;;
12826;SDS011;66927;48.812;9.118;2023-04-06T08:08:53;13.27;;;9.88;;
12826;SDS011;66927;48.812;9.118;2023-04-06T08:11:19;12.95;;;9.63;;
12826;SDS011;66927;48.812;9.118;2023-04-06T08:13:45;11.40;;;9.32;;
12826;SDS011;66927;48.812;9.118;2023-04-06T08:16:11;10.77;;;9.68;;
12826;SDS011;66927;48.812;9.118;2023-04-06T08:18:37;11.57;;;10.43;;
12826;SDS011;66927;48.812;9.118;2023-04-06T08:21:03;11.65;;;9.77;;
12826;SDS011;66927;48.812;9.118;2023-04-06T08:23:28;12.00;;;9.60;;
12826;SDS011;66927;48.812;9.118;2023-04-06T08:25:55;10.80;;;9.15;;
12826;SDS011;66927;48.812;9.118;2023-04-06T08:28:21;10.07;;;9.07;;
12826;SDS011;66927;48.812;9.118;2023-04-06T08:30:47;10.20;;;9.20;;
12826;SDS011;66927;48.812;9.118;2023-04-06T08:33:12;10.38;;;9.40;;
12826;SDS011;66927;48.812;9.118;2023-04-06T08:35:38;10.35;;;9.35;;
12826;SDS011;66927;48.812;9.118;2023-04-06T08:38:04;14.85;;;9.32;;
12826;SDS011;66927;48.812;9.118;2023-04-06T08:40:35;14.88;;;10.18;;
12826;SDS011;66927;48.812;9.118;2023-04-06T08:43:03;10.63;;;9.63;;
12826;SDS011;66927;48.812;9.118;2023-04-06T08:45:33;11.23;;;9.55;;
12826;SDS011;66927;48.812;9.118;2023-04-06T08:47:59;10.55;;;9.63;;
12826;SDS011;66927;48.812;9.118;2023-04-06T08:50:27;9.98;;;8.80;;
12826;SDS011;66927;48.812;9.118;2023-04-06T08:52:55;10.07;;;9.27;;
12826;SDS011;66927;48.812;9.118;2023-04-06T08:55:21;10.25;;;9.15;;
12826;SDS011;66927;48.812;9.118;2023-04-06T08:57:48;11.07;;;10.07;;
12826;SDS011;66927;48.812;9.118;2023-04-06T09:00:14;10.07;;;9.27;;
12826;SDS011;66927;48.812;9.118;2023-04-06T09:02:42;9.52;;;8.73;;
12826;SDS011;66927;48.812;9.118;2023-04-06T09:05:12;11.43;;;9.23;;
12826;SDS011;66927;48.812;9.118;2023-04-06T09:07:38;9.52;;;8.50;;
12826;SDS011;66927;48.812;9.118;2023-04-06T09:10:04;9.18;;;7.97;;
12826;SDS011;66927;48.812;9.118;2023-04-06T09:12:31;9.52;;;8.65;;
12826;SDS011;66927;48.812;9.118;2023-04-06T09:14:58;9.40;;;8.63;;
12826;SDS011;66927;48.812;9.118;2023-04-06T09:17:31;9.52;;;8.65;;
12826;SDS011;66927;48.812;9.118;2023-04-06T09:20:02;10.43;;;8.98;;
12826;SDS011;66927;48.812;9.118;2023-04-06T09:22:39;9.75;;;8.95;;
12826;SDS011;66927;48.812;9.118;2023-04-06T09:25:06;10.70;;;9.73;;
12826;SDS011;66927;48.812;9.118;2023-04-06T09:27:35;10.55;;;9.45;;
12826;SDS011;66927;48.812;9.118;2023-04-06T09:32:49;9.75;;;9.05;;
12826;SDS011;66927;48.812;9.118;2023-04-06T09:35:16;10.73;;;8.80;;
12826;SDS011;66927;48.812;9.118;2023-04-06T09:37:45;11.15;;;10.15;;
12826;SDS011;66927;48.812;9.118;2023-04-06T09:40:12;9.32;;;8.52;;
12826;SDS011;66927;48.812;9.118;2023-04-06T09:42:41;8.50;;;7.80;;
12826;SDS011;66927;48.812;9.118;2023-04-06T09:45:12;10.35;;;8.00;;
12826;SDS011;66927;48.812;9.118;2023-04-06T09:47:40;8.77;;;7.90;;
12826;SDS011;66927;48.812;9.118;2023-04-06T09:50:08;9.05;;;8.25;;
12826;SDS011;66927;48.812;9.118;2023-04-06T09:52:46;10.65;;;8.73;;
12826;SDS011;66927;48.812;9.118;2023-04-06T09:55:17;9.20;;;8.40;;
12826;SDS011;66927;48.812;9.118;2023-04-06T09:58:05;9.98;;;9.05;;
12826;SDS011;66927;48.812;9.118;2023-04-06T10:03:56;10.07;;;9.27;;
12826;SDS011;66927;48.812;9.118;2023-04-06T10:06:38;9.43;;;8.75;;
12826;SDS011;66927;48.812;9.118;2023-04-06T10:09:04;9.82;;;8.98;;
12826;SDS011;66927;48.812;9.118;2023-04-06T10:11:33;9.10;;;8.20;;
12826;SDS011;66927;48.812;9.118;2023-04-06T10:13:59;9.70;;;8.90;;
12826;SDS011;66927;48.812;9.118;2023-04-06T10:16:25;9.20;;;7.93;;
12826;SDS011;66927;48.812;9.118;2023-04-06T10:18:54;9.63;;;8.68;;
12826;SDS011;66927;48.812;9.118;2023-04-06T10:21:23;9.52;;;8.70;;
12826;SDS011;66927;48.812;9.118;2023-04-06T10:23:52;9.05;;;8.25;;
12826;SDS011;66927;48.812;9.118;2023-04-06T10:26:23;9.10;;;7.97;;
12826;SDS011;66927;48.812;9.118;2023-04-06T10:28:49;8.80;;;7.95;;
12826;SDS011;66927;48.812;9.118;2023-04-06T10:31:23;9.55;;;8.02;;
12826;SDS011;66927;48.812;9.118;2023-04-06T10:34:01;9.40;;;8.60;;
12826;SDS011;66927;48.812;9.118;2023-04-06T10:36:28;9.23;;;8.07;;
12826;SDS011;66927;48.812;9.118;2023-04-06T10:39:02;10.82;;;7.88;;
12826;SDS011;66927;48.812;9.118;2023-04-06T10:41:41;9.10;;;8.43;;
12826;SDS011;66927;48.812;9.118;2023-04-06T10:44:08;8.68;;;7.93;;
12826;SDS011;66927;48.812;9.118;2023-04-06T10:46:52;8.55;;;7.85;;
12826;SDS011;66927;48.812;9.118;2023-04-06T10:49:19;9.52;;;8.73;;
12826;SDS011;66927;48.812;9.118;2023-04-06T10:51:50;8.35;;;7.55;;
12826;SDS011;66927;48.812;9.118;2023-04-06T10:54:24;8.30;;;7.53;;
12826;SDS011;66927;48.812;9.118;2023-04-06T10:56:51;8.82;;;8.02;;
12826;SDS011;66927;48.812;9.118;2023-04-06T10:59:20;8.77;;;8.07;;
12826;SDS011;66927;48.812;9.118;2023-04-06T11:01:47;8.98;;;8.27;;
12826;SDS011;66927;48.812;9.118;2023-04-06T11:04:15;8.68;;;7.97;;
12826;SDS011;66927;48.812;9.118;2023-04-06T11:06:48;8.25;;;7.45;;
12826;SDS011;66927;48.812;9.118;2023-04-06T11:09:24;9.10;;;8.23;;
12826;SDS011;66927;48.812;9.118;2023-04-06T11:11:51;8.32;;;7.63;;
12826;SDS011;66927;48.812;9.118;2023-04-06T11:14:17;8.90;;;8.25;;
12826;SDS011;66927;48.812;9.118;2023-04-06T11:16:45;8.23;;;7.55;;
12826;SDS011;66927;48.812;9.118;2023-04-06T11:19:13;10.13;;;9.02;;
12826;SDS011;66927;48.812;9.118;2023-04-06T11:21:46;8.10;;;7.50;;
12826;SDS011;66927;48.812;9.118;2023-04-06T11:24:17;7.55;;;7.03;;
12826;SDS011;66927;48.812;9.118;2023-04-06T11:29:20;7.95;;;7.35;;
12826;SDS011;66927;48.812;9.118;2023-04-06T11:32:03;7.88;;;7.18;;
12826;SDS011;66927;48.812;9.118;2023-04-06T11:34:32;8.80;;;8.07;;
12826;SDS011;66927;48.812;9.118;2023-04-06T11:37:04;7.90;;;7.20;;
12826;SDS011;66927;48.812;9.118;2023-04-06T11:39:40;8.75;;;7.97;;
12826;SDS011;66927;48.812;9.118;2023-04-06T11:42:29;8.00;;;7.40;;
12826;SDS011;66927;48.812;9.118;2023-04-06T11:44:55;7.82;;;7.22;;
12826;SDS011;66927;48.812;9.118;2023-04-06T11:47:35;8.18;;;7.40;;
12826;SDS011;66927;48.812;9.118;2023-04-06T11:50:12;8.32;;;7.63;;
12826;SDS011;66927;48.812;9.118;2023-04-06T11:52:42;8.07;;;7.38;;
12826;SDS011;66927;48.812;9.118;2023-04-06T11:55:14;9.70;;;7.75;;
12826;SDS011;66927;48.812;9.118;2023-04-06T11:57:41;7.85;;;7.05;;
12826;SDS011;66927;48.812;9.118;2023-04-06T12:00:08;7.45;;;6.85;;
12826;SDS011;66927;48.812;9.118;2023-04-06T12:02:35;7.47;;;6.88;;
12826;SDS011;66927;48.812;9.118;2023-04-06T12:05:02;8.30;;;7.60;;
12826;SDS011;66927;48.812;9.118;2023-04-06T12:07:29;7.47;;;6.78;;
12826;SDS011;66927;48.812;9.118;2023-04-06T12:09:55;7.30;;;6.78;;
12826;SDS011;66927;48.812;9.118;2023-04-06T12:12:21;7.32;;;6.72;;
12826;SDS011;66927;48.812;9.118;2023-04-06T12:14:47;7.90;;;7.05;;
12826;SDS011;66927;48.812;9.118;2023-04-06T12:17:12;8.27;;;7.60;;
12826;SDS011;66927;48.812;9.118;2023-04-06T12:19:38;8.80;;;7.95;;
12826;SDS011;66927;48.812;9.118;2023-04-06T12:22:04;7.38;;;6.78;;
12826;SDS011;66927;48.812;9.118;2023-04-06T12:24:30;7.68;;;6.97;;
12826;SDS011;66927;48.812;9.118;2023-04-06T12:26:55;8.20;;;7.50;;
12826;SDS011;66927;48.812;9.118;2023-04-06T12:29:23;7.95;;;7.15;;
12826;SDS011;66927;48.812;9.118;2023-04-06T12:31:49;7.93;;;7.18;;
12826;SDS011;66927;48.812;9.118;2023-04-06T12:34:17;8.10;;;6.85;;
12826;SDS011;66927;48.812;9.118;2023-04-06T12:36:43;8.20;;;6.88;;
12826;SDS011;66927;48.812;9.118;2023-04-06T12:39:09;8.20;;;6.82;;
12826;SDS011;66927;48.812;9.118;2023-04-06T12:41:36;9.45;;;6.35;;
12826;SDS011;66927;48.812;9.118;2023-04-06T12:44:02;8.02;;;6.82;;
12826;SDS011;66927;48.812;9.118;2023-04-06T12:46:28;8.30;;;7.18;;
12826;SDS011;66927;48.812;9.118;2023-04-06T12:48:57;7.55;;;6.85;;
12826;SDS011;66927;48.812;9.118;2023-04-06T12:51:24;7.77;;;7.10;;
12826;SDS011;66927;48.812;9.118;2023-04-06T12:53:52;18.07;;;7.47;;
12826;SDS011;66927;48.812;9.118;2023-04-06T12:56:18;9.00;;;6.90;;
12826;SDS011;66927;48.812;9.118;2023-04-06T12:58:45;7.27;;;6.57;;
12826;SDS011;66927;48.812;9.118;2023-04-06T13:01:12;7.13;;;6.43;;
12826;SDS011;66927;48.812;9.118;2023-04-06T13:03:38;7.17;;;6.30;;
12826;SDS011;66927;48.812;9.118;2023-04-06T13:06:05;7.10;;;6.50;;
12826;SDS011;66927;48.812;9.118;2023-04-06T13:08:33;8.13;;;7.30;;
12826;SDS011;66927;48.812;9.118;2023-04-06T13:10:59;7.77;;;6.90;;
12826;SDS011;66927;48.812;9.118;2023-04-06T13:13:27;7.10;;;6.40;;
12826;SDS011;66927;48.812;9.118;2023-04-06T13:15:54;7.63;;;6.90;;
12826;SDS011;66927;48.812;9.118;2023-04-06T13:18:24;7.60;;;6.83;;
12826;SDS011;66927;48.812;9.118;2023-04-06T13:20:50;8.37;;;6.87;;
12826;SDS011;66927;48.812;9.118;2023-04-06T13:23:16;7.67;;;6.87;;
12826;SDS011;66927;48.812;9.118;2023-04-06T13:25:41;7.53;;;6.40;;
12826;SDS011;66927;48.812;9.118;2023-04-06T13:28:07;6.83;;;6.13;;
12826;SDS011;66927;48.812;9.118;2023-04-06T13:30:33;8.60;;;6.20;;
12826;SDS011;66927;48.812;9.118;2023-04-06T13:32:59;8.73;;;7.07;;
12826;SDS011;66927;48.812;9.118;2023-04-06T13:35:25;8.70;;;6.90;;
12826;SDS011;66927;48.812;9.118;2023-04-06T13:37:51;7.73;;;6.93;;
12826;SDS011;66927;48.812;9.118;2023-04-06T13:40:17;7.77;;;7.07;;
12826;SDS011;66927;48.812;9.118;2023-04-06T13:42:43;8.07;;;6.10;;
12826;SDS011;66927;48.812;9.118;2023-04-06T13:45:11;6.83;;;6.13;;
12826;SDS011;66927;48.812;9.118;2023-04-06T13:47:37;8.47;;;7.30;;
12826;SDS011;66927;48.812;9.118;2023-04-06T13:50:03;7.70;;;6.90;;
12826;SDS011;66927;48.812;9.118;2023-04-06T13:52:29;10.83;;;6.37;;
12826;SDS011;66927;48.812;9.118;2023-04-06T13:54:55;7.27;;;6.57;;
12826;SDS011;66927;48.812;9.118;2023-04-06T13:57:21;7.00;;;6.20;;
12826;SDS011;66927;48.812;9.118;2023-04-06T13:59:46;6.90;;;6.30;;
12826;SDS011;66927;48.812;9.118;2023-04-06T14:02:12;7.07;;;6.37;;
12826;SDS011;66927;48.812;9.118;2023-04-06T14:04:38;6.67;;;6.07;;
12826;SDS011;66927;48.812;9.118;2023-04-06T14:07:04;8.67;;;7.00;;
12826;SDS011;66927;48.812;9.118;2023-04-06T14:09:32;7.17;;;6.30;;
12826;SDS011;66927;48.812;9.118;2023-04-06T14:11:58;12.67;;;6.10;;
12826;SDS011;66927;48.812;9.118;2023-04-06T14:14:24;6.73;;;6.03;;
12826;SDS011;66927;48.812;9.118;2023-04-06T14:16:50;9.07;;;6.73;;
12826;SDS011;66927;48.812;9.118;2023-04-06T14:19:16;7.80;;;7.00;;
12826;SDS011;66927;48.812;9.118;2023-04-06T14:21:45;6.57;;;5.93;;
12826;SDS011;66927;48.812;9.118;2023-04-06T14:24:11;7.70;;;6.83;;
12826;SDS011;66927;48.812;9.118;2023-04-06T14:26:38;6.50;;;5.90;;
12826;SDS011;66927;48.812;9.118;2023-04-06T14:29:12;8.83;;;6.33;;
12826;SDS011;66927;48.812;9.118;2023-04-06T14:31:37;7.90;;;6.63;;
12826;SDS011;66927;48.812;9.118;2023-04-06T14:34:03;6.77;;;6.13;;
12826;SDS011;66927;48.812;9.118;2023-04-06T14:36:32;6.83;;;6.13;;
12826;SDS011;66927;48.812;9.118;2023-04-06T14:39:06;8.67;;;5.70;;
12826;SDS011;66927;48.812;9.118;2023-04-06T14:41:32;6.70;;;6.07;;
12826;SDS011;66927;48.812;9.118;2023-04-06T14:43:58;7.20;;;6.50;;
12826;SDS011;66927;48.812;9.118;2023-04-06T14:46:25;8.27;;;5.67;;
12826;SDS011;66927;48.812;9.118;2023-04-06T14:48:51;6.93;;;5.50;;
12826;SDS011;66927;48.812;9.118;2023-04-06T14:51:26;7.30;;;6.20;;